Flight Briefing for CPX214

Departure Arrival
Benito Juárez International Airport (MMMX)
Click to view FAA NOTAMS
Don Miguel Hidalgo y Costilla International Airport (MMGL)
Click to view FAA NOTAMS
Departure Time Arrival Time
0600 UTC 0700 UTC
Aircraft Distance
B767-300BDSF 268nm
Departure METAR Arrival METAR
MMMX 250345Z 33007KT 7SM BKN020 BKN080 OVC200 20/07 A3030 NOSIG RMK 8/463 HZY BINOVC MMGL 250341Z 27009KT 10SM SKC 25/08 A3007
Suggested Route
TLC6A TLC UJ18 UPN UJ3 ONGEL ONGEL1A


View recent IFR Routes data
Notes



Charts and Procedures

Charts for MMMX
No chart available
Charts for MMGL
No chart available

Windy.com Weather Map